sensor_id;sensor_type;location;lat;lon;timestamp;P1;durP1;ratioP1;P2;durP2;ratioP2
70406;SDS011;57821;52.202;0.154;2023-03-01T00:00:40;4.07;;;1.20;;
70406;SDS011;57821;52.202;0.154;2023-03-01T00:03:07;3.13;;;0.85;;
70406;SDS011;57821;52.202;0.154;2023-03-01T00:05:33;4.15;;;1.55;;
70406;SDS011;57821;52.202;0.154;2023-03-01T00:08:04;4.55;;;1.20;;
70406;SDS011;57821;52.202;0.154;2023-03-01T00:10:33;3.60;;;1.30;;
70406;SDS011;57821;52.202;0.154;2023-03-01T00:13:00;3.55;;;1.13;;
70406;SDS011;57821;52.202;0.154;2023-03-01T00:15:27;3.72;;;1.17;;
70406;SDS011;57821;52.202;0.154;2023-03-01T00:17:54;4.72;;;1.33;;
70406;SDS011;57821;52.202;0.154;2023-03-01T00:20:20;3.13;;;1.00;;
70406;SDS011;57821;52.202;0.154;2023-03-01T00:22:47;2.72;;;0.88;;
70406;SDS011;57821;52.202;0.154;2023-03-01T00:25:14;3.20;;;1.20;;
70406;SDS011;57821;52.202;0.154;2023-03-01T00:27:40;5.18;;;1.27;;
70406;SDS011;57821;52.202;0.154;2023-03-01T00:30:08;3.95;;;1.00;;
70406;SDS011;57821;52.202;0.154;2023-03-01T00:32:36;3.20;;;0.90;;
70406;SDS011;57821;52.202;0.154;2023-03-01T00:35:05;4.00;;;0.90;;
70406;SDS011;57821;52.202;0.154;2023-03-01T00:37:31;4.65;;;1.00;;
70406;SDS011;57821;52.202;0.154;2023-03-01T00:39:58;3.05;;;1.10;;
70406;SDS011;57821;52.202;0.154;2023-03-01T00:42:25;4.82;;;1.10;;
70406;SDS011;57821;52.202;0.154;2023-03-01T00:44:51;3.40;;;1.00;;
70406;SDS011;57821;52.202;0.154;2023-03-01T00:47:18;4.13;;;1.92;;
70406;SDS011;57821;52.202;0.154;2023-03-01T00:49:45;2.42;;;0.80;;
70406;SDS011;57821;52.202;0.154;2023-03-01T00:52:12;4.70;;;1.00;;
70406;SDS011;57821;52.202;0.154;2023-03-01T00:54:38;3.65;;;0.90;;
70406;SDS011;57821;52.202;0.154;2023-03-01T00:57:05;2.83;;;0.90;;
70406;SDS011;57821;52.202;0.154;2023-03-01T00:59:32;4.45;;;1.05;;
70406;SDS011;57821;52.202;0.154;2023-03-01T01:01:58;3.63;;;0.80;;
70406;SDS011;57821;52.202;0.154;2023-03-01T01:04:25;2.60;;;0.70;;
70406;SDS011;57821;52.202;0.154;2023-03-01T01:06:51;1.98;;;0.65;;
70406;SDS011;57821;52.202;0.154;2023-03-01T01:09:18;2.85;;;0.80;;
70406;SDS011;57821;52.202;0.154;2023-03-01T01:11:46;2.47;;;0.60;;
70406;SDS011;57821;52.202;0.154;2023-03-01T01:14:14;2.67;;;0.60;;
70406;SDS011;57821;52.202;0.154;2023-03-01T01:16:41;2.38;;;0.60;;
70406;SDS011;57821;52.202;0.154;2023-03-01T01:19:09;1.92;;;0.50;;
70406;SDS011;57821;52.202;0.154;2023-03-01T01:21:37;2.88;;;0.60;;
70406;SDS011;57821;52.202;0.154;2023-03-01T01:24:04;2.35;;;0.52;;
70406;SDS011;57821;52.202;0.154;2023-03-01T01:26:31;2.85;;;0.60;;
70406;SDS011;57821;52.202;0.154;2023-03-01T01:29:00;2.80;;;0.60;;
70406;SDS011;57821;52.202;0.154;2023-03-01T01:31:28;4.28;;;0.80;;
70406;SDS011;57821;52.202;0.154;2023-03-01T01:33:56;2.63;;;0.60;;
70406;SDS011;57821;52.202;0.154;2023-03-01T01:36:24;3.08;;;0.70;;
70406;SDS011;57821;52.202;0.154;2023-03-01T01:38:51;2.95;;;0.70;;
70406;SDS011;57821;52.202;0.154;2023-03-01T01:41:18;2.58;;;0.60;;
70406;SDS011;57821;52.202;0.154;2023-03-01T01:43:50;2.85;;;0.90;;
70406;SDS011;57821;52.202;0.154;2023-03-01T01:46:41;2.70;;;0.60;;
70406;SDS011;57821;52.202;0.154;2023-03-01T01:49:19;4.10;;;0.70;;
70406;SDS011;57821;52.202;0.154;2023-03-01T01:52:05;2.83;;;0.80;;
70406;SDS011;57821;52.202;0.154;2023-03-01T01:54:40;4.15;;;0.75;;
70406;SDS011;57821;52.202;0.154;2023-03-01T01:57:10;6.18;;;0.85;;
70406;SDS011;57821;52.202;0.154;2023-03-01T01:59:41;4.68;;;0.80;;
70406;SDS011;57821;52.202;0.154;2023-03-01T02:02:11;3.53;;;1.00;;
70406;SDS011;57821;52.202;0.154;2023-03-01T02:04:39;2.58;;;0.77;;
70406;SDS011;57821;52.202;0.154;2023-03-01T02:07:17;3.00;;;0.70;;
70406;SDS011;57821;52.202;0.154;2023-03-01T02:09:47;3.78;;;1.10;;
70406;SDS011;57821;52.202;0.154;2023-03-01T02:12:19;4.45;;;1.08;;
70406;SDS011;57821;52.202;0.154;2023-03-01T02:14:49;3.58;;;0.73;;
70406;SDS011;57821;52.202;0.154;2023-03-01T02:17:17;5.97;;;1.05;;
70406;SDS011;57821;52.202;0.154;2023-03-01T02:22:24;3.33;;;0.95;;
70406;SDS011;57821;52.202;0.154;2023-03-01T02:30:29;4.53;;;1.23;;
70406;SDS011;57821;52.202;0.154;2023-03-01T02:32:57;3.15;;;1.00;;
70406;SDS011;57821;52.202;0.154;2023-03-01T02:35:26;4.22;;;1.10;;
70406;SDS011;57821;52.202;0.154;2023-03-01T02:37:52;3.80;;;0.90;;
70406;SDS011;57821;52.202;0.154;2023-03-01T02:40:19;3.35;;;1.08;;
70406;SDS011;57821;52.202;0.154;2023-03-01T02:42:48;5.55;;;1.08;;
70406;SDS011;57821;52.202;0.154;2023-03-01T02:45:20;3.70;;;1.17;;
70406;SDS011;57821;52.202;0.154;2023-03-01T02:47:47;4.85;;;1.10;;
70406;SDS011;57821;52.202;0.154;2023-03-01T02:53:21;9.15;;;1.90;;
70406;SDS011;57821;52.202;0.154;2023-03-01T02:55:58;5.80;;;1.10;;
70406;SDS011;57821;52.202;0.154;2023-03-01T02:58:25;4.78;;;1.40;;
70406;SDS011;57821;52.202;0.154;2023-03-01T03:00:52;4.38;;;1.73;;
70406;SDS011;57821;52.202;0.154;2023-03-01T03:03:20;4.65;;;1.05;;
70406;SDS011;57821;52.202;0.154;2023-03-01T03:05:47;4.45;;;1.13;;
70406;SDS011;57821;52.202;0.154;2023-03-01T03:08:15;5.07;;;1.10;;
70406;SDS011;57821;52.202;0.154;2023-03-01T03:10:42;3.63;;;1.23;;
70406;SDS011;57821;52.202;0.154;2023-03-01T03:13:11;5.30;;;1.35;;
70406;SDS011;57821;52.202;0.154;2023-03-01T03:15:41;4.93;;;1.20;;
70406;SDS011;57821;52.202;0.154;2023-03-01T03:18:10;4.82;;;1.30;;
70406;SDS011;57821;52.202;0.154;2023-03-01T03:20:39;4.25;;;1.15;;
70406;SDS011;57821;52.202;0.154;2023-03-01T03:23:08;4.22;;;1.20;;
70406;SDS011;57821;52.202;0.154;2023-03-01T03:25:35;7.32;;;1.40;;
70406;SDS011;57821;52.202;0.154;2023-03-01T03:28:02;6.53;;;1.33;;
70406;SDS011;57821;52.202;0.154;2023-03-01T03:30:30;7.78;;;1.70;;
70406;SDS011;57821;52.202;0.154;2023-03-01T03:32:58;9.82;;;1.63;;
70406;SDS011;57821;52.202;0.154;2023-03-01T03:35:28;4.10;;;1.30;;
70406;SDS011;57821;52.202;0.154;2023-03-01T03:37:57;5.80;;;1.15;;
70406;SDS011;57821;52.202;0.154;2023-03-01T03:42:58;3.75;;;1.23;;
70406;SDS011;57821;52.202;0.154;2023-03-01T03:45:24;5.03;;;1.10;;
70406;SDS011;57821;52.202;0.154;2023-03-01T03:47:52;5.97;;;2.38;;
70406;SDS011;57821;52.202;0.154;2023-03-01T03:50:18;5.97;;;1.40;;
70406;SDS011;57821;52.202;0.154;2023-03-01T03:52:46;6.75;;;1.60;;
70406;SDS011;57821;52.202;0.154;2023-03-01T03:55:13;6.20;;;1.48;;
70406;SDS011;57821;52.202;0.154;2023-03-01T03:57:40;7.18;;;1.63;;
70406;SDS011;57821;52.202;0.154;2023-03-01T04:00:09;5.82;;;1.55;;
70406;SDS011;57821;52.202;0.154;2023-03-01T04:02:37;4.70;;;1.70;;
70406;SDS011;57821;52.202;0.154;2023-03-01T04:05:05;7.28;;;1.50;;
70406;SDS011;57821;52.202;0.154;2023-03-01T04:07:33;4.63;;;1.60;;
70406;SDS011;57821;52.202;0.154;2023-03-01T04:10:04;7.38;;;2.20;;
70406;SDS011;57821;52.202;0.154;2023-03-01T04:12:33;6.90;;;2.03;;
70406;SDS011;57821;52.202;0.154;2023-03-01T04:15:03;7.50;;;2.03;;
70406;SDS011;57821;52.202;0.154;2023-03-01T04:17:31;11.80;;;2.30;;
70406;SDS011;57821;52.202;0.154;2023-03-01T04:19:58;7.22;;;2.08;;
70406;SDS011;57821;52.202;0.154;2023-03-01T04:22:25;6.78;;;3.88;;
70406;SDS011;57821;52.202;0.154;2023-03-01T04:24:51;7.70;;;2.28;;
70406;SDS011;57821;52.202;0.154;2023-03-01T04:27:18;5.63;;;2.40;;
70406;SDS011;57821;52.202;0.154;2023-03-01T04:29:45;6.85;;;2.65;;
70406;SDS011;57821;52.202;0.154;2023-03-01T04:32:11;5.88;;;2.70;;
70406;SDS011;57821;52.202;0.154;2023-03-01T04:34:38;8.35;;;2.47;;
70406;SDS011;57821;52.202;0.154;2023-03-01T04:37:04;6.40;;;2.45;;
70406;SDS011;57821;52.202;0.154;2023-03-01T04:39:31;10.18;;;2.83;;
70406;SDS011;57821;52.202;0.154;2023-03-01T04:41:57;12.20;;;2.70;;
70406;SDS011;57821;52.202;0.154;2023-03-01T04:44:24;6.35;;;2.42;;
70406;SDS011;57821;52.202;0.154;2023-03-01T04:46:51;11.77;;;2.67;;
70406;SDS011;57821;52.202;0.154;2023-03-01T04:49:18;7.85;;;2.63;;
70406;SDS011;57821;52.202;0.154;2023-03-01T04:51:44;8.45;;;2.83;;
70406;SDS011;57821;52.202;0.154;2023-03-01T04:54:11;6.45;;;2.60;;
70406;SDS011;57821;52.202;0.154;2023-03-01T04:56:37;9.88;;;3.00;;
70406;SDS011;57821;52.202;0.154;2023-03-01T04:59:04;5.53;;;2.22;;
70406;SDS011;57821;52.202;0.154;2023-03-01T05:01:30;7.43;;;2.00;;
70406;SDS011;57821;52.202;0.154;2023-03-01T05:03:57;10.15;;;2.35;;
70406;SDS011;57821;52.202;0.154;2023-03-01T05:06:24;8.02;;;2.60;;
70406;SDS011;57821;52.202;0.154;2023-03-01T05:08:51;10.80;;;2.20;;
70406;SDS011;57821;52.202;0.154;2023-03-01T05:11:17;6.80;;;2.20;;
70406;SDS011;57821;52.202;0.154;2023-03-01T05:13:44;7.85;;;2.72;;
70406;SDS011;57821;52.202;0.154;2023-03-01T05:16:11;6.95;;;2.05;;
70406;SDS011;57821;52.202;0.154;2023-03-01T05:18:38;9.10;;;3.92;;
70406;SDS011;57821;52.202;0.154;2023-03-01T05:21:08;12.27;;;2.28;;
70406;SDS011;57821;52.202;0.154;2023-03-01T05:23:36;10.23;;;3.40;;
70406;SDS011;57821;52.202;0.154;2023-03-01T05:26:03;9.73;;;2.42;;
70406;SDS011;57821;52.202;0.154;2023-03-01T05:28:36;9.07;;;2.50;;
70406;SDS011;57821;52.202;0.154;2023-03-01T05:31:03;13.20;;;3.10;;
70406;SDS011;57821;52.202;0.154;2023-03-01T05:33:30;11.25;;;3.90;;
70406;SDS011;57821;52.202;0.154;2023-03-01T05:35:59;6.40;;;2.10;;
70406;SDS011;57821;52.202;0.154;2023-03-01T05:38:26;12.55;;;2.45;;
70406;SDS011;57821;52.202;0.154;2023-03-01T05:40:53;11.48;;;2.25;;
70406;SDS011;57821;52.202;0.154;2023-03-01T05:43:19;11.10;;;2.53;;
70406;SDS011;57821;52.202;0.154;2023-03-01T05:45:46;9.60;;;2.25;;
70406;SDS011;57821;52.202;0.154;2023-03-01T05:48:13;8.05;;;2.28;;
70406;SDS011;57821;52.202;0.154;2023-03-01T05:50:41;11.88;;;2.97;;
70406;SDS011;57821;52.202;0.154;2023-03-01T05:53:13;8.75;;;2.45;;
70406;SDS011;57821;52.202;0.154;2023-03-01T05:55:43;8.02;;;2.50;;
70406;SDS011;57821;52.202;0.154;2023-03-01T05:58:11;9.43;;;3.38;;
70406;SDS011;57821;52.202;0.154;2023-03-01T06:00:40;9.55;;;4.00;;
70406;SDS011;57821;52.202;0.154;2023-03-01T06:03:09;10.50;;;4.72;;
70406;SDS011;57821;52.202;0.154;2023-03-01T06:05:37;14.02;;;4.90;;
70406;SDS011;57821;52.202;0.154;2023-03-01T06:08:03;11.82;;;4.70;;
70406;SDS011;57821;52.202;0.154;2023-03-01T06:10:30;14.35;;;5.60;;
70406;SDS011;57821;52.202;0.154;2023-03-01T06:12:57;14.15;;;5.18;;
70406;SDS011;57821;52.202;0.154;2023-03-01T06:15:24;12.65;;;5.78;;
70406;SDS011;57821;52.202;0.154;2023-03-01T06:17:53;12.75;;;5.43;;
70406;SDS011;57821;52.202;0.154;2023-03-01T06:20:23;12.15;;;5.43;;
70406;SDS011;57821;52.202;0.154;2023-03-01T06:22:51;16.23;;;6.07;;
70406;SDS011;57821;52.202;0.154;2023-03-01T06:25:19;16.73;;;5.88;;
70406;SDS011;57821;52.202;0.154;2023-03-01T06:27:48;15.40;;;5.95;;
70406;SDS011;57821;52.202;0.154;2023-03-01T06:30:16;12.52;;;5.75;;
70406;SDS011;57821;52.202;0.154;2023-03-01T06:32:44;19.60;;;7.10;;
70406;SDS011;57821;52.202;0.154;2023-03-01T06:35:11;16.13;;;7.03;;
70406;SDS011;57821;52.202;0.154;2023-03-01T06:37:40;13.60;;;6.07;;
70406;SDS011;57821;52.202;0.154;2023-03-01T06:40:07;18.80;;;6.25;;
70406;SDS011;57821;52.202;0.154;2023-03-01T06:42:35;13.43;;;6.35;;
70406;SDS011;57821;52.202;0.154;2023-03-01T06:45:03;19.45;;;6.82;;
70406;SDS011;57821;52.202;0.154;2023-03-01T06:47:32;16.95;;;6.30;;
70406;SDS011;57821;52.202;0.154;2023-03-01T06:50:00;16.55;;;6.43;;
70406;SDS011;57821;52.202;0.154;2023-03-01T06:52:27;16.10;;;5.80;;
70406;SDS011;57821;52.202;0.154;2023-03-01T06:54:54;20.42;;;5.60;;
70406;SDS011;57821;52.202;0.154;2023-03-01T06:57:21;12.95;;;5.43;;
70406;SDS011;57821;52.202;0.154;2023-03-01T06:59:47;15.48;;;5.78;;
70406;SDS011;57821;52.202;0.154;2023-03-01T07:02:14;13.27;;;5.20;;
70406;SDS011;57821;52.202;0.154;2023-03-01T07:04:42;14.50;;;4.97;;
70406;SDS011;57821;52.202;0.154;2023-03-01T07:07:09;18.13;;;5.10;;
70406;SDS011;57821;52.202;0.154;2023-03-01T07:09:36;11.93;;;4.53;;
70406;SDS011;57821;52.202;0.154;2023-03-01T07:12:02;14.15;;;4.03;;
70406;SDS011;57821;52.202;0.154;2023-03-01T07:14:29;15.40;;;4.75;;
70406;SDS011;57821;52.202;0.154;2023-03-01T07:16:56;13.13;;;5.30;;
70406;SDS011;57821;52.202;0.154;2023-03-01T07:19:22;10.68;;;4.13;;
70406;SDS011;57821;52.202;0.154;2023-03-01T07:21:49;12.52;;;4.50;;
70406;SDS011;57821;52.202;0.154;2023-03-01T07:24:16;12.35;;;4.45;;
70406;SDS011;57821;52.202;0.154;2023-03-01T07:26:42;16.15;;;4.72;;
70406;SDS011;57821;52.202;0.154;2023-03-01T07:29:09;13.40;;;4.00;;
70406;SDS011;57821;52.202;0.154;2023-03-01T07:31:36;10.35;;;3.72;;
70406;SDS011;57821;52.202;0.154;2023-03-01T07:34:03;9.63;;;3.30;;
70406;SDS011;57821;52.202;0.154;2023-03-01T07:36:30;11.95;;;3.20;;
70406;SDS011;57821;52.202;0.154;2023-03-01T07:38:57;11.85;;;3.50;;
70406;SDS011;57821;52.202;0.154;2023-03-01T07:41:24;15.95;;;2.90;;
70406;SDS011;57821;52.202;0.154;2023-03-01T07:43:51;11.63;;;3.70;;
70406;SDS011;57821;52.202;0.154;2023-03-01T07:46:17;8.13;;;2.58;;
70406;SDS011;57821;52.202;0.154;2023-03-01T07:48:44;8.10;;;2.85;;
70406;SDS011;57821;52.202;0.154;2023-03-01T07:51:11;12.68;;;2.60;;
70406;SDS011;57821;52.202;0.154;2023-03-01T07:53:38;12.32;;;3.38;;
70406;SDS011;57821;52.202;0.154;2023-03-01T07:56:06;12.98;;;3.92;;
70406;SDS011;57821;52.202;0.154;2023-03-01T07:58:35;11.30;;;2.70;;
70406;SDS011;57821;52.202;0.154;2023-03-01T08:01:03;11.05;;;2.47;;
70406;SDS011;57821;52.202;0.154;2023-03-01T08:03:34;10.68;;;2.50;;
70406;SDS011;57821;52.202;0.154;2023-03-01T08:06:18;8.35;;;2.22;;
70406;SDS011;57821;52.202;0.154;2023-03-01T08:08:51;11.38;;;1.98;;
70406;SDS011;57821;52.202;0.154;2023-03-01T08:11:17;10.57;;;3.47;;
70406;SDS011;57821;52.202;0.154;2023-03-01T08:13:44;10.07;;;2.03;;
70406;SDS011;57821;52.202;0.154;2023-03-01T08:16:16;12.00;;;1.95;;
70406;SDS011;57821;52.202;0.154;2023-03-01T08:18:43;10.88;;;1.83;;
70406;SDS011;57821;52.202;0.154;2023-03-01T08:21:11;6.60;;;1.83;;
70406;SDS011;57821;52.202;0.154;2023-03-01T08:26:15;7.90;;;1.48;;
70406;SDS011;57821;52.202;0.154;2023-03-01T08:28:44;8.40;;;1.70;;
70406;SDS011;57821;52.202;0.154;2023-03-01T08:33:47;9.70;;;2.15;;
70406;SDS011;57821;52.202;0.154;2023-03-01T08:36:16;9.45;;;1.38;;
70406;SDS011;57821;52.202;0.154;2023-03-01T08:38:43;8.07;;;1.50;;
70406;SDS011;57821;52.202;0.154;2023-03-01T08:41:10;8.50;;;1.33;;
70406;SDS011;57821;52.202;0.154;2023-03-01T08:43:36;11.27;;;2.30;;
70406;SDS011;57821;52.202;0.154;2023-03-01T08:46:03;6.43;;;1.30;;
70406;SDS011;57821;52.202;0.154;2023-03-01T08:48:30;14.35;;;2.55;;
70406;SDS011;57821;52.202;0.154;2023-03-01T08:50:56;8.53;;;1.43;;
70406;SDS011;57821;52.202;0.154;2023-03-01T08:53:23;8.57;;;1.05;;
70406;SDS011;57821;52.202;0.154;2023-03-01T08:55:50;5.63;;;1.38;;
70406;SDS011;57821;52.202;0.154;2023-03-01T08:58:16;12.73;;;1.90;;
70406;SDS011;57821;52.202;0.154;2023-03-01T09:00:43;9.30;;;1.50;;
70406;SDS011;57821;52.202;0.154;2023-03-01T09:03:09;6.30;;;0.90;;
70406;SDS011;57821;52.202;0.154;2023-03-01T09:05:36;9.10;;;1.10;;
70406;SDS011;57821;52.202;0.154;2023-03-01T09:08:03;4.75;;;0.82;;
70406;SDS011;57821;52.202;0.154;2023-03-01T09:10:30;8.32;;;1.48;;
70406;SDS011;57821;52.202;0.154;2023-03-01T09:12:57;6.03;;;1.55;;
70406;SDS011;57821;52.202;0.154;2023-03-01T09:15:23;6.15;;;1.00;;
70406;SDS011;57821;52.202;0.154;2023-03-01T09:17:50;6.65;;;1.05;;
70406;SDS011;57821;52.202;0.154;2023-03-01T09:20:16;6.32;;;1.23;;
70406;SDS011;57821;52.202;0.154;2023-03-01T09:22:43;4.90;;;1.15;;
70406;SDS011;57821;52.202;0.154;2023-03-01T09:25:10;10.57;;;2.00;;
70406;SDS011;57821;52.202;0.154;2023-03-01T09:27:36;6.10;;;1.10;;
70406;SDS011;57821;52.202;0.154;2023-03-01T09:30:03;12.95;;;1.65;;
70406;SDS011;57821;52.202;0.154;2023-03-01T09:32:31;6.07;;;1.45;;
70406;SDS011;57821;52.202;0.154;2023-03-01T09:34:57;8.43;;;2.22;;
70406;SDS011;57821;52.202;0.154;2023-03-01T09:37:24;6.22;;;2.08;;
70406;SDS011;57821;52.202;0.154;2023-03-01T09:39:50;8.32;;;3.08;;
70406;SDS011;57821;52.202;0.154;2023-03-01T09:42:17;10.82;;;3.38;;
70406;SDS011;57821;52.202;0.154;2023-03-01T09:44:48;5.88;;;1.40;;
70406;SDS011;57821;52.202;0.154;2023-03-01T09:47:25;4.70;;;0.95;;
70406;SDS011;57821;52.202;0.154;2023-03-01T09:52:34;4.00;;;0.93;;
70406;SDS011;57821;52.202;0.154;2023-03-01T09:55:14;8.32;;;1.60;;
70406;SDS011;57821;52.202;0.154;2023-03-01T09:57:50;4.68;;;1.05;;
70406;SDS011;57821;52.202;0.154;2023-03-01T10:05:59;11.80;;;3.95;;
70406;SDS011;57821;52.202;0.154;2023-03-01T10:08:48;14.57;;;4.93;;
70406;SDS011;57821;52.202;0.154;2023-03-01T10:11:24;19.90;;;7.78;;
70406;SDS011;57821;52.202;0.154;2023-03-01T10:19:57;10.77;;;4.32;;
70406;SDS011;57821;52.202;0.154;2023-03-01T10:22:41;8.23;;;2.53;;
70406;SDS011;57821;52.202;0.154;2023-03-01T10:25:08;8.95;;;2.08;;
70406;SDS011;57821;52.202;0.154;2023-03-01T10:27:52;7.50;;;2.17;;
70406;SDS011;57821;52.202;0.154;2023-03-01T10:33:18;6.53;;;1.42;;
70406;SDS011;57821;52.202;0.154;2023-03-01T10:35:49;6.65;;;2.05;;
70406;SDS011;57821;52.202;0.154;2023-03-01T10:38:16;5.35;;;1.30;;
70406;SDS011;57821;52.202;0.154;2023-03-01T10:40:52;4.85;;;1.10;;
70406;SDS011;57821;52.202;0.154;2023-03-01T10:43:21;4.43;;;0.98;;
70406;SDS011;57821;52.202;0.154;2023-03-01T10:45:48;4.70;;;1.55;;
70406;SDS011;57821;52.202;0.154;2023-03-01T10:48:33;8.10;;;2.88;;
70406;SDS011;57821;52.202;0.154;2023-03-01T10:53:27;8.32;;;2.45;;
70406;SDS011;57821;52.202;0.154;2023-03-01T10:58:40;7.78;;;1.83;;
70406;SDS011;57821;52.202;0.154;2023-03-01T11:06:57;5.20;;;1.30;;
70406;SDS011;57821;52.202;0.154;2023-03-01T11:09:25;5.65;;;1.65;;
70406;SDS011;57821;52.202;0.154;2023-03-01T11:11:52;5.95;;;1.60;;
70406;SDS011;57821;52.202;0.154;2023-03-01T11:14:27;3.33;;;0.80;;
70406;SDS011;57821;52.202;0.154;2023-03-01T11:16:59;5.72;;;1.15;;
70406;SDS011;57821;52.202;0.154;2023-03-01T11:19:29;6.28;;;1.50;;
70406;SDS011;57821;52.202;0.154;2023-03-01T11:27:37;7.20;;;1.40;;
70406;SDS011;57821;52.202;0.154;2023-03-01T11:32:40;3.00;;;0.85;;
70406;SDS011;57821;52.202;0.154;2023-03-01T11:35:16;4.53;;;1.08;;
70406;SDS011;57821;52.202;0.154;2023-03-01T11:38:02;3.47;;;0.80;;
70406;SDS011;57821;52.202;0.154;2023-03-01T11:41:06;5.20;;;1.00;;
70406;SDS011;57821;52.202;0.154;2023-03-01T11:43:57;5.82;;;1.27;;
70406;SDS011;57821;52.202;0.154;2023-03-01T11:54:27;3.63;;;0.52;;
70406;SDS011;57821;52.202;0.154;2023-03-01T11:59:49;3.70;;;0.60;;
70406;SDS011;57821;52.202;0.154;2023-03-01T12:07:59;4.80;;;0.60;;
70406;SDS011;57821;52.202;0.154;2023-03-01T12:16:11;2.08;;;0.50;;
70406;SDS011;57821;52.202;0.154;2023-03-01T12:26:44;2.47;;;0.47;;
70406;SDS011;57821;52.202;0.154;2023-03-01T12:37:14;2.25;;;0.25;;
70406;SDS011;57821;52.202;0.154;2023-03-01T12:47:55;2.72;;;0.45;;
70406;SDS011;57821;52.202;0.154;2023-03-01T12:50:40;1.73;;;0.50;;
70406;SDS011;57821;52.202;0.154;2023-03-01T12:53:15;1.30;;;0.30;;
70406;SDS011;57821;52.202;0.154;2023-03-01T12:55:48;2.85;;;0.30;;
70406;SDS011;57821;52.202;0.154;2023-03-01T12:58:20;3.88;;;0.60;;
70406;SDS011;57821;52.202;0.154;2023-03-01T13:01:08;3.17;;;0.50;;
70406;SDS011;57821;52.202;0.154;2023-03-01T13:04:00;3.25;;;0.95;;
70406;SDS011;57821;52.202;0.154;2023-03-01T13:06:32;4.70;;;0.57;;
70406;SDS011;57821;52.202;0.154;2023-03-01T13:11:45;1.48;;;0.40;;
70406;SDS011;57821;52.202;0.154;2023-03-01T13:16:47;2.25;;;0.22;;
70406;SDS011;57821;52.202;0.154;2023-03-01T13:19:16;1.92;;;0.38;;
70406;SDS011;57821;52.202;0.154;2023-03-01T13:21:46;1.83;;;0.40;;
70406;SDS011;57821;52.202;0.154;2023-03-01T13:24:34;1.55;;;0.30;;
70406;SDS011;57821;52.202;0.154;2023-03-01T13:27:09;0.63;;;0.20;;
70406;SDS011;57821;52.202;0.154;2023-03-01T13:29:45;0.88;;;0.17;;
70406;SDS011;57821;52.202;0.154;2023-03-01T13:37:46;1.52;;;0.30;;
70406;SDS011;57821;52.202;0.154;2023-03-01T13:42:43;4.72;;;1.83;;
70406;SDS011;57821;52.202;0.154;2023-03-01T13:48:08;3.70;;;1.30;;
70406;SDS011;57821;52.202;0.154;2023-03-01T13:50:46;3.63;;;0.80;;
70406;SDS011;57821;52.202;0.154;2023-03-01T13:53:17;6.22;;;2.45;;
70406;SDS011;57821;52.202;0.154;2023-03-01T13:55:48;2.90;;;0.70;;
70406;SDS011;57821;52.202;0.154;2023-03-01T13:58:30;4.38;;;0.60;;
70406;SDS011;57821;52.202;0.154;2023-03-01T14:01:00;3.00;;;0.60;;
70406;SDS011;57821;52.202;0.154;2023-03-01T14:03:31;3.13;;;0.55;;
70406;SDS011;57821;52.202;0.154;2023-03-01T14:06:14;2.55;;;0.47;;
70406;SDS011;57821;52.202;0.154;2023-03-01T14:11:51;6.78;;;1.08;;
70406;SDS011;57821;52.202;0.154;2023-03-01T14:14:47;4.95;;;0.80;;
70406;SDS011;57821;52.202;0.154;2023-03-01T14:19:55;4.35;;;0.60;;
70406;SDS011;57821;52.202;0.154;2023-03-01T14:22:29;5.35;;;0.70;;
70406;SDS011;57821;52.202;0.154;2023-03-01T14:25:00;3.72;;;0.57;;
70406;SDS011;57821;52.202;0.154;2023-03-01T14:27:36;2.20;;;0.50;;
70406;SDS011;57821;52.202;0.154;2023-03-01T14:30:25;4.18;;;0.68;;
70406;SDS011;57821;52.202;0.154;2023-03-01T14:32:57;7.82;;;0.77;;
70406;SDS011;57821;52.202;0.154;2023-03-01T14:35:27;2.10;;;0.32;;
70406;SDS011;57821;52.202;0.154;2023-03-01T14:37:56;3.22;;;0.80;;
70406;SDS011;57821;52.202;0.154;2023-03-01T14:40:27;4.28;;;0.88;;
70406;SDS011;57821;52.202;0.154;2023-03-01T14:42:57;4.97;;;0.80;;
70406;SDS011;57821;52.202;0.154;2023-03-01T14:45:27;3.30;;;0.75;;
70406;SDS011;57821;52.202;0.154;2023-03-01T14:47:55;4.72;;;0.50;;
70406;SDS011;57821;52.202;0.154;2023-03-01T14:50:27;5.45;;;0.80;;
70406;SDS011;57821;52.202;0.154;2023-03-01T14:52:59;3.42;;;0.65;;
70406;SDS011;57821;52.202;0.154;2023-03-01T14:55:30;5.32;;;0.90;;
70406;SDS011;57821;52.202;0.154;2023-03-01T14:58:02;3.63;;;0.50;;
70406;SDS011;57821;52.202;0.154;2023-03-01T15:00:32;6.45;;;1.08;;
70406;SDS011;57821;52.202;0.154;2023-03-01T15:03:04;3.67;;;0.80;;
70406;SDS011;57821;52.202;0.154;2023-03-01T15:05:34;4.85;;;0.57;;
70406;SDS011;57821;52.202;0.154;2023-03-01T15:08:02;6.30;;;0.95;;
70406;SDS011;57821;52.202;0.154;2023-03-01T15:10:31;4.47;;;0.63;;
70406;SDS011;57821;52.202;0.154;2023-03-01T15:13:19;5.40;;;0.95;;
70406;SDS011;57821;52.202;0.154;2023-03-01T15:15:49;4.88;;;0.77;;
70406;SDS011;57821;52.202;0.154;2023-03-01T15:18:19;3.50;;;0.73;;
70406;SDS011;57821;52.202;0.154;2023-03-01T15:20:49;4.50;;;0.90;;
70406;SDS011;57821;52.202;0.154;2023-03-01T15:23:21;5.68;;;0.70;;
70406;SDS011;57821;52.202;0.154;2023-03-01T15:25:51;6.47;;;0.80;;
70406;SDS011;57821;52.202;0.154;2023-03-01T15:28:19;5.10;;;0.98;;
70406;SDS011;57821;52.202;0.154;2023-03-01T15:30:51;2.97;;;0.70;;
70406;SDS011;57821;52.202;0.154;2023-03-01T15:35:50;2.53;;;0.60;;
70406;SDS011;57821;52.202;0.154;2023-03-01T15:40:55;15.98;;;5.35;;
70406;SDS011;57821;52.202;0.154;2023-03-01T15:43:39;13.77;;;6.47;;
70406;SDS011;57821;52.202;0.154;2023-03-01T15:46:16;8.65;;;2.05;;
70406;SDS011;57821;52.202;0.154;2023-03-01T15:48:46;6.00;;;0.80;;
70406;SDS011;57821;52.202;0.154;2023-03-01T15:51:14;4.90;;;0.80;;
70406;SDS011;57821;52.202;0.154;2023-03-01T15:53:42;3.80;;;0.77;;
70406;SDS011;57821;52.202;0.154;2023-03-01T15:56:20;3.35;;;0.70;;
70406;SDS011;57821;52.202;0.154;2023-03-01T15:58:47;3.20;;;0.50;;
70406;SDS011;57821;52.202;0.154;2023-03-01T16:01:14;1.42;;;0.40;;
70406;SDS011;57821;52.202;0.154;2023-03-01T16:03:42;3.70;;;0.68;;
70406;SDS011;57821;52.202;0.154;2023-03-01T16:06:09;1.58;;;0.25;;
70406;SDS011;57821;52.202;0.154;2023-03-01T16:08:37;4.43;;;0.60;;
70406;SDS011;57821;52.202;0.154;2023-03-01T16:11:09;4.05;;;0.70;;
70406;SDS011;57821;52.202;0.154;2023-03-01T16:13:42;4.97;;;0.70;;
70406;SDS011;57821;52.202;0.154;2023-03-01T16:16:10;5.03;;;0.88;;
70406;SDS011;57821;52.202;0.154;2023-03-01T16:18:38;4.47;;;0.70;;
70406;SDS011;57821;52.202;0.154;2023-03-01T16:21:05;3.92;;;0.77;;
70406;SDS011;57821;52.202;0.154;2023-03-01T16:23:31;2.45;;;0.60;;
70406;SDS011;57821;52.202;0.154;2023-03-01T16:25:58;7.07;;;1.15;;
70406;SDS011;57821;52.202;0.154;2023-03-01T16:28:25;3.45;;;0.40;;
70406;SDS011;57821;52.202;0.154;2023-03-01T16:30:54;3.45;;;0.65;;
70406;SDS011;57821;52.202;0.154;2023-03-01T16:33:21;3.70;;;0.50;;
70406;SDS011;57821;52.202;0.154;2023-03-01T16:35:58;3.15;;;1.63;;
70406;SDS011;57821;52.202;0.154;2023-03-01T16:38:25;2.30;;;0.32;;
70406;SDS011;57821;52.202;0.154;2023-03-01T16:40:52;4.40;;;1.30;;
70406;SDS011;57821;52.202;0.154;2023-03-01T16:43:19;3.85;;;0.80;;
70406;SDS011;57821;52.202;0.154;2023-03-01T16:45:45;2.50;;;0.52;;
70406;SDS011;57821;52.202;0.154;2023-03-01T16:48:12;6.25;;;1.75;;
70406;SDS011;57821;52.202;0.154;2023-03-01T16:50:39;3.70;;;0.57;;
70406;SDS011;57821;52.202;0.154;2023-03-01T16:53:06;4.60;;;0.65;;
70406;SDS011;57821;52.202;0.154;2023-03-01T16:55:32;3.67;;;0.73;;
70406;SDS011;57821;52.202;0.154;2023-03-01T16:58:00;4.00;;;0.50;;
70406;SDS011;57821;52.202;0.154;2023-03-01T17:00:27;5.55;;;0.77;;
70406;SDS011;57821;52.202;0.154;2023-03-01T17:02:54;4.00;;;0.63;;
70406;SDS011;57821;52.202;0.154;2023-03-01T17:05:21;3.03;;;0.80;;
70406;SDS011;57821;52.202;0.154;2023-03-01T17:07:47;5.15;;;1.30;;